Kingsland, Georgia
Current Conditions -  °F | °C
As of 11:55 AM on Friday 24 Oct 2014 (Local Time) from KFHB Reporting Station
Clear Clear  
Wind Chill: 73°   Ceiling: Unl
Heat Index: 73°   Visibility: 10mi
Dew Point: 52°   Wind: 10mph
Humidity: 47%   Direction: 330°NNW
Pressure: 30.05"   Gusts: NA
Location:  30.8°N, 81.69°W
Report Text: KFHB 241555Z AUTO 33009KT 10SM CLR 23/11 A3005 RMK AO1
Loading
Personal Weather Stations






























Interactive Weather Map
Tropical Storm Tracking
New forecast layout! Learn more

10-Day Weather Forecast

Advertisements
Track Severe Weather on mobile